ADDS METAR Data INFO
IDs: Format: Raw Decoded Include TAF

Data at: 0201 UTC 17 Oct 2017

KFZY 170154Z AUTO 00000KT 10SM OVC047 06/02 A3025 RMK AO2 SLP245 T00610022
KFZY 170054Z AUTO 31003KT 10SM OVC050 07/01 A3023 RMK AO2 SLP239 T00670006
KFZY 162354Z AUTO 31004KT 10SM OVC050 07/01 A3023 RMK AO2 SLP239 60006 T00670011 10083 20061 53014
KFZY 162254Z AUTO 30003KT 10SM OVC050 07/03 A3021 RMK AO2 SLP233 T00670028
KFZY 162154Z AUTO 28004KT 10SM OVC050 07/03 A3020 RMK AO2 RAB2058E12 SLP229 P0000 T00670033
KFZY 162054Z AUTO 28005KT 10SM SCT028 BKN036 OVC060 07/03 A3019 RMK AO2 RAB21E44 SLP225 P0002 60006 T00670033 51007
KFZY 162051Z AUTO 27005KT 10SM SCT026 BKN038 OVC060 07/03 A3019 RMK AO2 RAB21E44 P0002
KFZY 162041Z AUTO 29005KT 8SM -RA BKN028 BKN038 OVC055 07/03 A3019 RMK AO2 RAB21 P0002 T00670033
KFZY 162032Z AUTO 29008KT 2 1/2SM RA BKN022 BKN029 OVC060 06/03 A3019 RMK AO2 RAB21 P0001 T00610028
KFZY 161954Z AUTO 32009KT 10SM FEW042 OVC055 08/03 A3017 RMK AO2 RAE12 SLP220 P0001 T00830033
KFZY 161854Z AUTO 32009KT 6SM -RA FEW023 BKN034 OVC042 06/03 A3017 RMK AO2 SLP218 P0003 T00610028
KFZY 161754Z AUTO 31010G17KT 10SM -RA FEW023 BKN037 OVC060 08/04 A3016 RMK AO2 RAE1656B23 SLP214 P0001 60004 T00780039 10094 20072 51004
KFZY 161725Z AUTO 33007KT 8SM -RA BKN024 BKN034 08/03 A3015 RMK AO2 RAE1656B23 P0000 T00780033
KFZY 161705Z AUTO 31008KT 10SM SCT026 SCT036 BKN060 09/04 A3015 RMK AO2 RAE1656 P0000 T00890044
KFZY 161654Z AUTO 33011KT 10SM -RA BKN026 BKN036 OVC060 08/04 A3016 RMK AO2 RAB32 SLP213 P0000 T00830044
KFZY 161647Z AUTO 29010KT 9SM -RA BKN026 BKN033 OVC039 08/03 A3016 RMK AO2 RAB32 P0000 T00780033
KFZY 161554Z AUTO 33011KT 10SM FEW019 FEW045 BKN055 09/04 A3015 RMK AO2 RAE25 SLP212 P0000 T00890044
KFZY 161454Z AUTO 33007KT 10SM -RA FEW028 SCT034 OVC049 07/04 A3014 RMK AO2 SLP209 P0002 60003 T00720044 51017
KFZY 161408Z AUTO 31009KT 7SM -RA BKN030 OVC034 07/04 A3014 RMK AO2 P0001 T00720044
KFZY 161354Z AUTO 31012KT 4SM RA BKN027 OVC034 07/03 A3014 RMK AO2 RAB44 SLP206 P0001 T00720033
KFZY 161254Z AUTO 33009KT 10SM OVC024 08/03 A3012 RMK AO2 SLP199 T00780028
KFZY 161154Z AUTO 34007KT 10SM OVC026 08/02 A3009 RMK AO2 SLP190 60000 70028 T00780022 10094 20078 51017
KFZY 161054Z AUTO 33006KT 10SM OVC028 08/03 A3007 RMK AO2 SLP182 T00830028
KFZY 161052Z AUTO 34006KT 10SM OVC028 08/03 A3007 RMK AO2
KFZY 161040Z AUTO 35009KT 10SM OVC030 08/03 A3006 RMK AO2 T00830028
KFZY 160954Z AUTO 33007KT 10SM BKN027 OVC032 08/03 A3004 RMK AO2 SLP172 T00830033
KFZY 160950Z AUTO 34009KT 10SM OVC029 08/03 A3004 RMK AO2
KFZY 160925Z AUTO 34012G18KT 10SM OVC030 09/03 A3003 RMK AO2 T00890028
KFZY 160854Z AUTO 33010KT 10SM OVC027 09/04 A3002 RMK AO2 RAB04E19 SLP165 P0000 60000 T00890039 53016
KFZY 160754Z AUTO 34007KT 10SM OVC026 09/05 A3000 RMK AO2 RAB29E52 SLP158 P0000 T00890050
KFZY 160715Z AUTO 33012KT 10SM BKN029 OVC035 09/04 A2998 RMK AO2 T00940044
KFZY 160654Z AUTO 32009KT 10SM OVC032 09/05 A2997 RMK AO2 RAE11B29E39 SLP149 P0000 T00940050
KFZY 160649Z AUTO 34010KT 10SM SCT026 OVC034 09/05 A2997 RMK AO2 RAE11B29E39 P0000
KFZY 160554Z AUTO 31010G23KT 6SM -RA SCT022 OVC028 09/06 A2995 RMK AO2 PK WND 29026/0508 RAB20 SLP142 P0000 60000 T00940061 10178 20094 53035
KFZY 160454Z AUTO 29014G26KT 10SM BKN025 OVC033 11/06 A2991 RMK AO2 PK WND 29029/0430 SLP128 T01110061 402780111
KFZY 160354Z AUTO 28015G24KT 10SM SCT035 BKN044 12/07 A2987 RMK AO2 PK WND 27028/0325 SLP113 T01220067
KFZY 160254Z AUTO 28015G26KT 10SM BKN032 OVC040 13/08 A2985 RMK AO2 PK WND 29035/0217 SLP106 60000 T01330083 51051
KFZY 160224Z AUTO 29019G35KT 10SM SCT023 BKN031 OVC038 14/09 A2983 RMK AO2 PK WND 29035/0217 T01440094
KFZY 160209Z AUTO 28019G30KT 10SM SCT022 BKN029 BKN034 15/11 A2981 RMK AO2 PK WND 29030/0207 T01500106
KFZY 160154Z AUTO 27019G27KT 10SM SCT029 BKN120 15/10 A2981 RMK AO2 PK WND 29034/0113 SLP093 T01500100
KFZY 160054Z AUTO 28023G36KT 10SM FEW027 SCT035 OVC049 17/12 A2974 RMK AO2 PK WND 28036/0048 RAB2357E13 SLP071 P0000 T01720117
KFZY 152354Z AUTO 27012G21KT 10SM BKN060 OVC080 18/13 A2969 RMK AO2 RAE31 SLP054 P0001 60028 T01780128 10278 20178 51042
KFZY 152254Z AUTO 27015G23KT 10SM -RA SCT035 BKN055 OVC080 18/15 A2966 RMK AO2 PK WND 25041/2155 RAB2156 SLP041 P0027 T01780150
KFZY 152239Z AUTO 27015G28KT 9SM -RA FEW013 BKN031 OVC040 18/16 A2965 RMK AO2 PK WND 25041/2155 RAB2156 P0027 T01780156
KFZY 152225Z AUTO 28026G37KT 6SM -RA BR SCT013 BKN023 OVC080 19/17 A2963 RMK AO2 PK WND 25041/2155 RAB2156 P0027 T01890172
KFZY 152217Z AUTO 27015G26KT 3SM RA BR SCT017 BKN036 OVC055 19/17 A2964 RMK AO2 PK WND 25041/2155 RAB2156 P0026 T01890172
KFZY 152208Z AUTO 25017G25KT 1 1/4SM +RA BR SCT040 BKN060 OVC070 19/17 A2963 RMK AO2 PK WND 25041/2155 RAB2156 P0024 T01890172
KFZY 152201Z AUTO 25018G57KT 1/4SM +RA FG SQ SCT026 BKN050 OVC090 19/17 A2963 RMK AO2 PK WND 25041/2155 RAB2156 P0020 T01890172
KFZY 152154Z AUTO 26037G57KT 1SM HZ SQ FEW018 BKN070 OVC090 24/17 A2965 RMK AO2 PK WND 26057/2154 PRESRR SLP039 T02440172
KFZY 152054Z AUTO 21010KT 10SM SCT050 BKN065 OVC100 26/17 A2957 RMK AO2 SLP010 T02610172 56029
KFZY 151954Z AUTO 18011G23KT 10SM FEW050 27/17 A2958 RMK AO2 SLP015 T02670172
KFZY 151854Z AUTO 20012G23KT 10SM SCT065 27/17 A2962 RMK AO2 SLP028 T02670172
KFZY 151754Z AUTO 19009G23KT 10SM FEW042 27/17 A2965 RMK AO2 SLP040 T02670172 10272 20172 58036
KFZY 151654Z AUTO 18014G20KT 10SM CLR 25/17 A2970 RMK AO2 SLP054 T02500167
KFZY 151554Z AUTO 19011G23KT 10SM CLR 24/16 A2975 RMK AO2 PK WND 19026/1500 SLP071 T02440161
KFZY 151454Z AUTO 18015G26KT 10SM CLR 22/16 A2976 RMK AO2 PK WND 18026/1450 SLP077 T02220156 58034